createdAt,value
2018-09-17T00:01:42.003Z,15.20
2018-09-17T00:04:11.590Z,15.15
2018-09-17T00:06:41.176Z,15.10
2018-09-17T00:09:12.498Z,15.03
2018-09-17T00:11:42.094Z,14.98
2018-09-17T00:14:11.703Z,14.92
2018-09-17T00:16:41.318Z,14.85
2018-09-17T00:19:10.981Z,14.79
2018-09-17T00:21:40.598Z,14.72
2018-09-17T00:24:11.290Z,14.65
2018-09-17T00:26:41.317Z,14.60
2018-09-17T00:29:10.922Z,14.56
2018-09-17T00:31:40.547Z,14.52
2018-09-17T00:34:10.126Z,14.48
2018-09-17T00:36:39.803Z,14.45
2018-09-17T00:39:11.646Z,14.41
2018-09-17T00:41:41.267Z,14.38
2018-09-17T00:44:10.856Z,14.34
2018-09-17T00:46:41.205Z,14.27
2018-09-17T00:49:10.775Z,14.21
2018-09-17T00:51:42.799Z,14.16
2018-09-17T00:54:12.404Z,14.10
2018-09-17T00:56:42.114Z,14.05
2018-09-17T00:59:11.885Z,14.03
2018-09-17T01:01:41.519Z,14.01
2018-09-17T01:04:11.212Z,13.97
2018-09-17T01:06:40.817Z,13.91
2018-09-17T01:09:14.470Z,13.84
2018-09-17T01:11:44.107Z,13.80
2018-09-17T01:14:13.732Z,13.78
2018-09-17T01:16:43.382Z,13.75
2018-09-17T01:19:14.371Z,13.71
2018-09-17T01:21:44.045Z,13.67
2018-09-17T01:24:13.736Z,13.63
2018-09-17T01:26:43.916Z,13.60
2018-09-17T01:29:13.507Z,13.55
2018-09-17T01:31:43.294Z,13.50
2018-09-17T01:34:13.513Z,13.43
2018-09-17T01:36:43.117Z,13.39
2018-09-17T01:39:13.274Z,13.35
2018-09-17T01:41:42.958Z,13.30
2018-09-17T01:44:12.723Z,13.26
2018-09-17T01:46:42.374Z,13.22
2018-09-17T01:49:11.996Z,13.17
2018-09-17T01:51:41.665Z,13.13
2018-09-17T01:54:11.399Z,13.12
2018-09-17T01:56:41.237Z,13.14
2018-09-17T01:59:11.002Z,13.12
2018-09-17T02:01:40.925Z,13.07
2018-09-17T02:04:10.846Z,13.03
2018-09-17T02:06:40.560Z,12.98
2018-09-17T02:09:10.399Z,12.94
2018-09-17T02:11:40.109Z,12.95
2018-09-17T02:14:09.965Z,12.95
2018-09-17T02:16:39.676Z,12.94
2018-09-17T02:19:09.530Z,12.95
2018-09-17T02:21:39.550Z,12.94
2018-09-17T02:24:09.406Z,12.91
2018-09-17T02:26:39.337Z,12.88
2018-09-17T02:29:09.013Z,12.85
2018-09-17T02:31:38.715Z,12.79
2018-09-17T02:34:08.669Z,12.77
2018-09-17T02:36:38.337Z,12.78
2018-09-17T02:39:09.068Z,12.79
2018-09-17T02:41:38.887Z,12.80
2018-09-17T02:44:09.273Z,12.78
2018-09-17T02:46:39.097Z,12.75
2018-09-17T02:49:08.865Z,12.68
2018-09-17T02:51:38.630Z,12.62
2018-09-17T02:54:08.361Z,12.57
2018-09-17T02:56:38.163Z,12.53
2018-09-17T02:59:07.871Z,12.47
2018-09-17T03:01:37.691Z,12.43
2018-09-17T03:04:07.570Z,12.38
2018-09-17T03:06:37.317Z,12.31
2018-09-17T03:09:09.772Z,12.27
2018-09-17T03:11:39.742Z,12.23
2018-09-17T03:14:09.534Z,12.20
2018-09-17T03:16:56.193Z,12.16
2018-09-17T03:19:25.996Z,12.15
2018-09-17T03:21:56.043Z,12.14
2018-09-17T03:24:25.814Z,12.11
2018-09-17T03:26:55.500Z,12.08
2018-09-17T03:29:25.244Z,12.04
2018-09-17T03:31:55.022Z,11.99
2018-09-17T03:34:24.767Z,11.92
2018-09-17T03:36:55.025Z,11.88
2018-09-17T03:39:24.823Z,11.85
2018-09-17T03:41:55.424Z,11.84
2018-09-17T03:44:25.137Z,11.84
2018-09-17T03:46:54.875Z,11.84
2018-09-17T03:49:25.114Z,11.83
2018-09-17T03:51:54.851Z,11.83
2018-09-17T03:54:24.562Z,11.82
2018-09-17T03:56:54.309Z,11.84
2018-09-17T03:59:24.022Z,11.82
2018-09-17T04:01:53.697Z,11.78
2018-09-17T04:04:24.978Z,11.76
2018-09-17T04:06:54.751Z,11.74
2018-09-17T04:09:24.911Z,11.76
2018-09-17T04:11:54.805Z,11.77
2018-09-17T04:14:24.802Z,11.76
2018-09-17T04:16:54.983Z,11.78
2018-09-17T04:19:24.689Z,11.76
2018-09-17T04:21:54.437Z,11.72
2018-09-17T04:24:24.146Z,11.69
2018-09-17T04:26:53.943Z,11.66
2018-09-17T04:29:23.664Z,11.63
2018-09-17T04:31:53.368Z,11.59
2018-09-17T04:34:23.073Z,11.57
2018-09-17T04:36:52.818Z,11.59
2018-09-17T04:39:24.201Z,11.61
2018-09-17T04:41:53.930Z,11.65
2018-09-17T04:44:23.656Z,11.67
2018-09-17T04:46:53.435Z,11.70
2018-09-17T04:49:23.181Z,11.69
2018-09-17T04:51:52.975Z,11.73
2018-09-17T04:54:22.786Z,11.76
2018-09-17T04:56:52.537Z,11.78
2018-09-17T04:59:22.276Z,11.81
2018-09-17T05:01:52.017Z,11.84
2018-09-17T05:04:21.716Z,11.87
2018-09-17T05:06:51.489Z,11.88
2018-09-17T05:09:21.200Z,11.89
2018-09-17T05:11:50.898Z,11.93
2018-09-17T05:14:20.693Z,11.98
2018-09-17T05:16:50.468Z,12.07
2018-09-17T05:19:20.184Z,12.45
2018-09-17T05:21:49.926Z,13.34
2018-09-17T05:24:19.691Z,14.42
2018-09-17T05:26:49.639Z,15.48
2018-09-17T05:29:19.985Z,16.43
2018-09-17T05:31:49.931Z,17.28
2018-09-17T05:34:19.617Z,18.04
2018-09-17T05:36:49.388Z,18.68
2018-09-17T05:39:19.107Z,19.29
2018-09-17T05:41:49.153Z,19.96
2018-09-17T05:44:18.967Z,20.54
2018-09-17T05:46:48.783Z,21.18
2018-09-17T05:49:18.521Z,21.74
2018-09-17T05:51:48.228Z,22.40
2018-09-17T05:54:18.010Z,23.09
2018-09-17T05:56:47.693Z,23.73
2018-09-17T05:59:17.533Z,24.31
2018-09-17T06:01:47.246Z,24.83
2018-09-17T06:04:17.187Z,25.28
2018-09-17T06:06:46.937Z,25.76
2018-09-17T06:09:16.699Z,26.26
2018-09-17T06:11:46.547Z,26.68
2018-09-17T06:14:16.303Z,27.05
2018-09-17T06:16:46.056Z,27.50
2018-09-17T06:19:15.894Z,27.86
2018-09-17T06:21:45.916Z,28.18
2018-09-17T06:24:15.656Z,28.54
2018-09-17T06:26:45.412Z,28.76
2018-09-17T06:29:15.160Z,28.84
2018-09-17T06:31:44.897Z,29.17
2018-09-17T06:34:14.642Z,29.65
2018-09-17T06:36:44.354Z,29.97
2018-09-17T06:39:14.127Z,30.33
2018-09-17T06:41:43.957Z,30.70
2018-09-17T06:44:14.195Z,31.03
2018-09-17T06:46:43.910Z,31.32
2018-09-17T06:49:13.617Z,31.53
2018-09-17T06:51:43.349Z,31.76
2018-09-17T06:54:13.046Z,32.07
2018-09-17T06:56:42.814Z,32.25
2018-09-17T06:59:12.534Z,32.42
2018-09-17T07:01:42.261Z,32.62
2018-09-17T07:04:11.995Z,32.99
2018-09-17T07:06:41.778Z,33.32
2018-09-17T07:09:12.496Z,33.59
2018-09-17T07:11:42.220Z,33.84
2018-09-17T07:14:11.972Z,33.93
2018-09-17T07:16:41.816Z,34.04
2018-09-17T07:19:11.629Z,34.45
2018-09-17T07:21:41.406Z,34.87
2018-09-17T07:24:11.118Z,35.22
2018-09-17T07:26:41.093Z,35.48
2018-09-17T07:29:10.801Z,35.73
2018-09-17T07:31:40.554Z,35.95
2018-09-17T07:34:10.276Z,36.11
2018-09-17T07:36:40.117Z,36.36
2018-09-17T07:39:11.894Z,36.65
2018-09-17T07:41:41.786Z,36.83
2018-09-17T07:44:11.552Z,36.94
2018-09-17T07:46:41.257Z,37.15
2018-09-17T07:49:11.105Z,37.25
2018-09-17T07:51:40.896Z,37.16
2018-09-17T07:54:10.782Z,37.23
2018-09-17T07:56:40.587Z,37.27
2018-09-17T07:59:10.597Z,37.31
2018-09-17T08:01:40.547Z,37.23
2018-09-17T08:04:10.310Z,37.08
2018-09-17T08:06:40.219Z,36.89
2018-09-17T08:09:13.093Z,36.80
2018-09-17T08:11:43.832Z,36.81
2018-09-17T08:14:14.906Z,36.98
2018-09-17T08:16:44.654Z,37.14
2018-09-17T08:19:14.377Z,37.26
2018-09-17T08:21:44.113Z,37.16
2018-09-17T08:24:13.829Z,37.03
2018-09-17T08:26:43.511Z,36.90
2018-09-17T08:29:13.316Z,36.92
2018-09-17T08:31:43.088Z,37.17
2018-09-17T08:34:13.117Z,37.32
2018-09-17T08:36:42.884Z,37.49
2018-09-17T08:39:13.843Z,37.59
2018-09-17T08:41:43.840Z,37.63
2018-09-17T08:44:13.627Z,37.58
2018-09-17T08:46:43.401Z,37.24
2018-09-17T08:49:13.121Z,36.72
2018-09-17T08:51:42.874Z,36.26
2018-09-17T08:54:12.595Z,36.07
2018-09-17T08:56:50.285Z,35.77
2018-09-17T08:59:25.246Z,35.23
2018-09-17T09:01:59.953Z,35.07
2018-09-17T09:04:34.962Z,34.98
2018-09-17T09:07:07.978Z,34.87
2018-09-17T09:09:37.781Z,34.73
2018-09-17T09:12:12.907Z,34.66
2018-09-17T09:14:42.613Z,34.38
2018-09-17T09:17:12.477Z,34.24
2018-09-17T09:19:42.256Z,34.10
2018-09-17T09:22:11.946Z,33.83
2018-09-17T09:24:41.888Z,33.53
2018-09-17T09:27:11.482Z,33.30
2018-09-17T09:29:41.461Z,33.19
2018-09-17T09:32:11.207Z,33.31
2018-09-17T09:34:41.049Z,33.51
2018-09-17T09:37:10.824Z,33.79
2018-09-17T09:39:40.722Z,34.05
2018-09-17T09:42:10.513Z,34.41
2018-09-17T09:44:40.313Z,34.85
2018-09-17T09:47:10.048Z,35.28
2018-09-17T09:49:39.861Z,35.64
2018-09-17T09:52:09.704Z,35.88
2018-09-17T09:54:39.668Z,36.21
2018-09-17T09:57:09.400Z,36.48
2018-09-17T09:59:39.177Z,36.74
2018-09-17T10:02:14.075Z,36.87
2018-09-17T10:04:43.757Z,36.77
2018-09-17T10:07:19.285Z,36.68
2018-09-17T10:10:51.818Z,36.71
2018-09-17T10:13:26.909Z,36.70
2018-09-17T10:15:57.909Z,36.85
2018-09-17T10:18:33.281Z,36.88
2018-09-17T10:21:03.049Z,36.90
2018-09-17T10:23:32.790Z,36.95
2018-09-17T10:26:09.027Z,36.91
2018-09-17T10:28:44.354Z,36.87
2018-09-17T10:31:14.166Z,36.83
2018-09-17T10:33:44.081Z,36.73
2018-09-17T10:36:13.824Z,36.62
2018-09-17T10:38:43.558Z,36.31
2018-09-17T10:41:13.254Z,35.93
2018-09-17T10:43:43.020Z,35.73
2018-09-17T10:46:12.817Z,35.42
2018-09-17T10:48:42.610Z,35.03
2018-09-17T10:51:12.309Z,34.69
2018-09-17T10:53:42.029Z,34.33
2018-09-17T10:56:11.812Z,34.03
2018-09-17T10:58:41.639Z,33.80
2018-09-17T11:01:11.429Z,33.58
2018-09-17T11:03:41.317Z,33.32
2018-09-17T11:06:11.208Z,33.08
2018-09-17T11:08:40.976Z,32.71
2018-09-17T11:11:10.684Z,32.19
2018-09-17T11:13:40.647Z,31.70
2018-09-17T11:16:10.360Z,31.31
2018-09-17T11:18:40.082Z,30.82
2018-09-17T11:21:09.800Z,30.14
2018-09-17T11:23:39.567Z,29.61
2018-09-17T11:26:09.360Z,29.23
2018-09-17T11:28:39.067Z,28.94
2018-09-17T11:31:08.870Z,28.65
2018-09-17T11:33:38.582Z,28.34
2018-09-17T11:36:08.521Z,28.02
2018-09-17T11:38:38.504Z,27.72
2018-09-17T11:41:08.319Z,27.49
2018-09-17T11:43:38.089Z,27.31
2018-09-17T11:46:07.929Z,27.10
2018-09-17T11:48:37.613Z,26.89
2018-09-17T11:51:07.360Z,26.74
2018-09-17T11:53:37.068Z,26.66
2018-09-17T11:56:06.835Z,26.60
2018-09-17T11:58:36.650Z,26.54
2018-09-17T12:01:11.677Z,26.52
2018-09-17T12:03:46.543Z,26.50
2018-09-17T12:06:23.084Z,26.51
2018-09-17T12:08:52.761Z,26.51
2018-09-17T12:11:22.528Z,26.53
2018-09-17T12:13:52.252Z,26.56
2018-09-17T12:16:22.026Z,26.58
2018-09-17T12:18:51.812Z,26.59
2018-09-17T12:21:21.574Z,26.64
2018-09-17T12:23:51.376Z,26.71
2018-09-17T12:26:21.168Z,26.76
2018-09-17T12:28:50.870Z,26.81
2018-09-17T12:31:20.785Z,26.86
2018-09-17T12:33:50.558Z,26.91
2018-09-17T12:36:20.354Z,26.94
2018-09-17T12:38:50.152Z,26.97
2018-09-17T12:41:19.894Z,27.00
2018-09-17T12:43:49.848Z,27.03
2018-09-17T12:46:19.601Z,27.06
2018-09-17T12:48:49.344Z,27.08
2018-09-17T12:51:19.040Z,27.10
2018-09-17T12:53:48.797Z,27.17
2018-09-17T12:56:18.612Z,27.21
2018-09-17T12:58:48.346Z,27.24
2018-09-17T13:01:18.161Z,27.23
2018-09-17T13:03:48.018Z,27.20
2018-09-17T13:06:17.837Z,27.20
2018-09-17T13:08:47.654Z,27.23
2018-09-17T13:11:17.525Z,27.27
2018-09-17T13:13:47.297Z,27.33
2018-09-17T13:16:17.050Z,27.39
2018-09-17T13:18:46.826Z,27.43
2018-09-17T13:21:17.549Z,27.46
2018-09-17T13:23:47.316Z,27.46
2018-09-17T13:26:17.312Z,27.47
2018-09-17T13:28:47.217Z,27.48
2018-09-17T13:31:16.906Z,27.51
2018-09-17T13:33:46.599Z,27.57
2018-09-17T13:36:16.297Z,27.63
2018-09-17T13:38:46.000Z,27.68
2018-09-17T13:41:22.227Z,27.73
2018-09-17T13:43:51.945Z,27.82
2018-09-17T13:46:22.001Z,27.89
2018-09-17T13:48:51.713Z,27.94
2018-09-17T13:51:21.421Z,27.93
2018-09-17T13:53:51.138Z,27.91
2018-09-17T13:56:20.893Z,27.87
2018-09-17T13:58:50.580Z,27.84
2018-09-17T14:01:20.332Z,27.75
2018-09-17T14:03:50.034Z,27.67
2018-09-17T14:06:19.738Z,27.63
2018-09-17T14:08:49.493Z,27.64
2018-09-17T14:11:19.271Z,27.66
2018-09-17T14:13:48.989Z,27.71
2018-09-17T14:16:23.920Z,27.77
2018-09-17T14:18:53.660Z,27.80
2018-09-17T14:21:23.467Z,27.83
2018-09-17T14:23:53.258Z,27.82
2018-09-17T14:26:23.042Z,27.82
2018-09-17T14:28:52.862Z,27.84
2018-09-17T14:31:27.877Z,27.88
2018-09-17T14:33:57.604Z,27.89
2018-09-17T14:36:27.365Z,27.82
2018-09-17T14:38:57.118Z,27.74
2018-09-17T14:41:26.804Z,27.69
2018-09-17T14:43:56.597Z,27.68
2018-09-17T14:46:26.465Z,27.70
2018-09-17T14:48:56.178Z,27.72
2018-09-17T14:51:25.898Z,27.73
2018-09-17T14:53:55.812Z,27.72
2018-09-17T14:56:25.780Z,27.70
2018-09-17T14:58:55.545Z,27.68
2018-09-17T15:01:25.284Z,27.66
2018-09-17T15:03:54.988Z,27.61
2018-09-17T15:06:24.798Z,27.56
2018-09-17T15:08:54.622Z,27.50
2018-09-17T15:11:24.374Z,27.42
2018-09-17T15:13:54.187Z,27.36
2018-09-17T15:16:24.079Z,27.28
2018-09-17T15:18:53.781Z,27.21
2018-09-17T15:21:23.533Z,27.13
2018-09-17T15:23:53.498Z,27.05
2018-09-17T15:26:23.349Z,26.96
2018-09-17T15:28:53.017Z,26.88
2018-09-17T15:31:22.779Z,26.78
2018-09-17T15:33:52.467Z,26.70
2018-09-17T15:36:22.207Z,26.62
2018-09-17T15:38:51.917Z,26.54
2018-09-17T15:41:27.979Z,26.46
2018-09-17T15:43:57.590Z,26.37
2018-09-17T15:46:27.360Z,26.27
2018-09-17T15:48:57.114Z,26.18
2018-09-17T15:51:26.804Z,26.07
2018-09-17T15:53:56.561Z,25.96
2018-09-17T15:56:26.267Z,25.87
2018-09-17T15:58:56.190Z,25.77
2018-09-17T16:01:25.887Z,25.67
2018-09-17T16:03:55.637Z,25.58
2018-09-17T16:06:25.340Z,25.48
2018-09-17T16:08:55.034Z,25.40
2018-09-17T16:11:24.797Z,25.33
2018-09-17T16:13:54.571Z,25.26
2018-09-17T16:16:24.278Z,25.19
2018-09-17T16:18:53.937Z,25.10
2018-09-17T16:21:23.653Z,25.02
2018-09-17T16:23:53.335Z,24.94
2018-09-17T16:26:23.104Z,24.84
2018-09-17T16:28:52.902Z,24.74
2018-09-17T16:31:22.552Z,24.62
2018-09-17T16:33:52.321Z,24.49
2018-09-17T16:36:22.068Z,24.35
2018-09-17T16:38:51.779Z,24.23
2018-09-17T16:41:21.497Z,24.12
2018-09-17T16:43:51.189Z,24.00
2018-09-17T16:46:21.018Z,23.88
2018-09-17T16:48:50.758Z,23.76
2018-09-17T16:51:20.582Z,23.65
2018-09-17T16:53:50.302Z,23.52
2018-09-17T16:56:20.174Z,23.40
2018-09-17T16:58:49.951Z,23.30
2018-09-17T17:01:19.702Z,23.17
2018-09-17T17:03:49.423Z,23.05
2018-09-17T17:06:19.162Z,22.92
2018-09-17T17:08:48.887Z,22.78
2018-09-17T17:11:18.629Z,22.66
2018-09-17T17:13:48.602Z,22.54
2018-09-17T17:16:18.954Z,22.43
2018-09-17T17:18:48.678Z,22.30
2018-09-17T17:21:18.341Z,22.18
2018-09-17T17:23:48.496Z,22.07
2018-09-17T17:26:18.192Z,21.96
2018-09-17T17:28:48.163Z,21.84
2018-09-17T17:31:17.885Z,21.70
2018-09-17T17:33:47.691Z,21.62
2018-09-17T17:36:17.406Z,21.55
2018-09-17T17:38:47.102Z,21.44
2018-09-17T17:41:23.462Z,21.36
2018-09-17T17:43:53.137Z,21.28
2018-09-17T17:46:22.899Z,21.23
2018-09-17T17:48:52.698Z,21.17
2018-09-17T17:51:22.417Z,21.12
2018-09-17T17:53:52.186Z,21.05
2018-09-17T17:56:21.889Z,21.00
2018-09-17T17:58:51.597Z,20.92
2018-09-17T18:01:21.628Z,20.85
2018-09-17T18:03:51.383Z,20.79
2018-09-17T18:06:21.539Z,20.74
2018-09-17T18:08:51.292Z,20.73
2018-09-17T18:11:21.311Z,20.74
2018-09-17T18:13:51.144Z,20.74
2018-09-17T18:16:24.822Z,20.74
2018-09-17T18:18:54.525Z,20.71
2018-09-17T18:21:24.315Z,20.65
2018-09-17T18:23:54.031Z,20.60
2018-09-17T18:26:23.815Z,20.52
2018-09-17T18:28:53.709Z,20.41
2018-09-17T18:31:23.394Z,20.33
2018-09-17T18:33:53.793Z,20.29
2018-09-17T18:36:23.863Z,20.23
2018-09-17T18:38:53.762Z,20.16
2018-09-17T18:41:23.421Z,20.07
2018-09-17T18:43:53.270Z,19.99
2018-09-17T18:46:23.018Z,19.95
2018-09-17T18:48:52.845Z,19.95
2018-09-17T18:51:22.755Z,19.93
2018-09-17T18:53:52.641Z,19.86
2018-09-17T18:56:22.495Z,19.77
2018-09-17T18:58:52.172Z,19.69
2018-09-17T19:01:21.910Z,19.62
2018-09-17T19:03:51.735Z,19.58
2018-09-17T19:06:21.577Z,19.54
2018-09-17T19:08:51.281Z,19.49
2018-09-17T19:11:21.164Z,19.44
2018-09-17T19:13:56.153Z,19.39
2018-09-17T19:16:30.990Z,19.35
2018-09-17T19:19:00.793Z,19.33
2018-09-17T19:21:35.871Z,19.27
2018-09-17T19:24:07.033Z,19.23
2018-09-17T19:26:36.700Z,19.21
2018-09-17T19:29:11.550Z,19.17
2018-09-17T19:31:41.236Z,19.15
2018-09-17T19:34:10.975Z,19.12
2018-09-17T19:36:40.648Z,19.09
2018-09-17T19:39:15.609Z,19.07
2018-09-17T19:41:45.703Z,19.03
2018-09-17T19:44:15.441Z,19.00
2018-09-17T19:46:45.121Z,18.95
2018-09-17T19:49:14.864Z,18.96
2018-09-17T19:51:49.792Z,19.01
2018-09-17T19:54:26.151Z,19.05
2018-09-17T19:56:55.800Z,19.10
2018-09-17T19:59:30.854Z,19.17
2018-09-17T20:02:00.554Z,19.21
2018-09-17T20:04:35.554Z,19.23
2018-09-17T20:07:05.262Z,19.29
2018-09-17T20:09:35.114Z,19.29
2018-09-17T20:12:04.847Z,19.23
2018-09-17T20:14:34.593Z,19.14
2018-09-17T20:17:04.321Z,19.06
2018-09-17T20:19:34.020Z,18.98
2018-09-17T20:22:03.759Z,18.93
2018-09-17T20:24:33.590Z,18.85
2018-09-17T20:27:03.530Z,18.78
2018-09-17T20:29:33.226Z,18.71
2018-09-17T20:32:02.949Z,18.67
2018-09-17T20:34:32.949Z,18.64
2018-09-17T20:37:02.824Z,18.60
2018-09-17T20:39:32.541Z,18.56
2018-09-17T20:42:02.284Z,18.51
2018-09-17T20:44:31.979Z,18.49
2018-09-17T20:47:01.677Z,18.53
2018-09-17T20:49:31.446Z,18.56
2018-09-17T20:52:01.093Z,18.58
2018-09-17T20:54:30.805Z,18.57
2018-09-17T20:57:00.517Z,18.55
2018-09-17T20:59:30.222Z,18.55
2018-09-17T21:01:59.940Z,18.54
2018-09-17T21:04:29.785Z,18.50
2018-09-17T21:06:59.674Z,18.44
2018-09-17T21:09:29.430Z,18.38
2018-09-17T21:11:59.326Z,18.28
2018-09-17T21:14:29.004Z,18.18
2018-09-17T21:16:58.732Z,18.11
2018-09-17T21:19:28.718Z,18.03
2018-09-17T21:21:58.381Z,17.96
2018-09-17T21:24:28.102Z,17.93
2018-09-17T21:26:57.847Z,17.93
2018-09-17T21:29:27.595Z,17.94
2018-09-17T21:31:57.314Z,17.96
2018-09-17T21:34:27.218Z,18.00
2018-09-17T21:36:56.979Z,18.00
2018-09-17T21:39:26.643Z,17.98
2018-09-17T21:41:56.477Z,17.98
2018-09-17T21:44:26.228Z,18.00
2018-09-17T21:46:55.933Z,18.00
2018-09-17T21:49:25.700Z,17.97
2018-09-17T21:51:55.404Z,17.95
2018-09-17T21:54:25.133Z,17.91
2018-09-17T21:56:54.846Z,17.87
2018-09-17T21:59:24.618Z,17.84
2018-09-17T22:01:54.336Z,17.80
2018-09-17T22:04:24.148Z,17.76
2018-09-17T22:06:53.865Z,17.72
2018-09-17T22:09:23.601Z,17.68
2018-09-17T22:11:53.478Z,17.63
2018-09-17T22:14:23.165Z,17.58
2018-09-17T22:16:52.910Z,17.56
2018-09-17T22:19:22.815Z,17.54
2018-09-17T22:21:52.486Z,17.53
2018-09-17T22:24:22.237Z,17.52
2018-09-17T22:26:52.051Z,17.50
2018-09-17T22:29:21.787Z,17.50
2018-09-17T22:31:51.506Z,17.50
2018-09-17T22:34:21.489Z,17.50
2018-09-17T22:36:51.161Z,17.50
2018-09-17T22:39:20.930Z,17.50
2018-09-17T22:41:50.615Z,17.50
2018-09-17T22:44:20.289Z,17.49
2018-09-17T22:46:49.978Z,17.48
2018-09-17T22:49:19.785Z,17.46
2018-09-17T22:51:49.511Z,17.46
2018-09-17T22:54:19.193Z,17.43
2018-09-17T22:56:49.078Z,17.40
2018-09-17T22:59:18.792Z,17.39
2018-09-17T23:01:48.495Z,17.39
2018-09-17T23:04:18.213Z,17.37
2018-09-17T23:06:47.869Z,17.34
2018-09-17T23:09:17.556Z,17.33
2018-09-17T23:11:47.437Z,17.31
2018-09-17T23:14:17.203Z,17.27
2018-09-17T23:16:46.918Z,17.25
2018-09-17T23:19:16.736Z,17.21
2018-09-17T23:21:46.406Z,17.17
2018-09-17T23:24:16.152Z,17.15
2018-09-17T23:26:45.834Z,17.11
2018-09-17T23:29:15.535Z,17.10
2018-09-17T23:31:45.281Z,17.07
2018-09-17T23:34:15.146Z,17.02
2018-09-17T23:36:44.841Z,16.98
2018-09-17T23:39:14.549Z,16.94
2018-09-17T23:41:44.290Z,16.88
2018-09-17T23:44:14.002Z,16.84
2018-09-17T23:46:43.736Z,16.76
2018-09-17T23:49:13.441Z,16.69
2018-09-17T23:51:43.129Z,16.63
2018-09-17T23:54:12.845Z,16.56
2018-09-17T23:56:42.739Z,16.47
2018-09-17T23:59:12.460Z,16.41
